Nanticoke — WDC4353 — position and weather

sailwx.info

Track history (hours):
 
Tides and Currents Weather Stations Pressure Air Temp Water Temp Dewpoint Dewpoint Depression Visibility Wind Speed Wind Dir Waves Ship Positions

Nanticoke

Owner: Vane Line Bunkering, Baltimore, MD. More information available from US FCC via Universal Licensing System and Coast Guard Vessel Documentation Center.

Last reported at 2015-Jul-03 23:32 UTC. Time now 2015-Jul-03 23:47 UTC.
Position N 40°39' W 074°03'.

Length 34 m; draft 4.7 m.

Type: Towing. MMSI: 367023480.

Date/timePositionNaut miles runAvg speedWind from/ knotsBaromVisibWave heightAir tempDewpointWater temp
2015-Jul-03 23:32N 40°39' W 074°03'0 0.2
2015-Jul-03 22:33N 40°39' W 074°03'0 0.0
2015-Jul-03 21:28N 40°39' W 074°03'0 0.0
2015-Jul-03 20:31N 40°39' W 074°03'0 0.0
2015-Jul-03 19:32N 40°39' W 074°03'0 0.0
2015-Jul-03 18:33N 40°39' W 074°03'0 0.0
2015-Jul-03 17:33N 40°39' W 074°03'0 0.0
2015-Jul-03 16:31N 40°39' W 074°03'0 0.0
2015-Jul-03 15:32N 40°39' W 074°03'0 0.1
2015-Jul-03 14:32N 40°39' W 074°03'0 0.0
2015-Jul-03 13:33N 40°39' W 074°03'0 0.1
2015-Jul-03 12:33N 40°39' W 074°03'0 0.0
2015-Jul-03 11:31N 40°39' W 074°03'0 0.0
2015-Jul-03 10:32N 40°39' W 074°03'0 0.0
2015-Jul-03 09:32N 40°39' W 074°03'0 0.0
2015-Jul-03 08:33N 40°39' W 074°03'0 0.0
2015-Jul-03 07:31N 40°39' W 074°03'0 0.0
2015-Jul-03 06:31N 40°39' W 074°03'0 0.0
2015-Jul-03 05:32N 40°39' W 074°03'0 0.0
2015-Jul-03 04:33N 40°39' W 074°03'2 1.6
2015-Jul-03 03:32N 40°39' W 074°05'1 1.0
2015-Jul-03 02:32N 40°40' W 074°05'0 0.0
2015-Jul-03 01:32N 40°40' W 074°05'0 0.0
2015-Jul-03 00:33N 40°40' W 074°05'0 0.0
2015-Jul-02 23:31N 40°40' W 074°05'0 0.0
2015-Jul-02 22:31N 40°40' W 074°05'0 0.0
2015-Jul-02 21:32N 40°40' W 074°05'0 0.0
2015-Jul-02 20:33N 40°40' W 074°05'0 0.0
2015-Jul-02 19:33N 40°40' W 074°05'0 0.0
2015-Jul-02 18:34N 40°40' W 074°05'4 3.8
2015-Jul-02 17:33N 40°40' W 074°00'0 0.0
2015-Jul-02 16:31N 40°40' W 074°00'0 0.0
2015-Jul-02 15:32N 40°40' W 074°00'0 0.0
2015-Jul-02 14:32N 40°40' W 074°00'0 0.0
2015-Jul-02 13:33N 40°40' W 074°00'0 0.0
2015-Jul-02 12:31N 40°40' W 074°00'0 0.0
2015-Jul-02 11:31N 40°40' W 074°00'0 0.0
2015-Jul-02 10:32N 40°40' W 074°00'0 0.0
2015-Jul-02 09:33N 40°40' W 074°00'4 3.8
2015-Jul-02 08:33N 40°39' W 074°05'1 1.1
2015-Jul-02 07:34N 40°39' W 074°04'1 0.9
2015-Jul-02 06:33N 40°39' W 074°03'0 0.0
2015-Jul-02 05:33N 40°39' W 074°03'0 0.0
2015-Jul-02 04:31N 40°39' W 074°03'0 0.0
2015-Jul-02 03:33N 40°39' W 074°03'0 0.2
2015-Jul-02 02:32N 40°39' W 074°03'0 0.0
2015-Jul-02 01:33N 40°39' W 074°02'0 0.0
2015-Jul-02 00:32N 40°39' W 074°02'0 0.0
2015-Jul-01 23:31N 40°39' W 074°02'0 0.0
2015-Jul-01 22:32N 40°39' W 074°02'4 4.0
2015-Jul-01 21:33N 40°39' W 074°07'4 3.6
2015-Jul-01 20:31N 40°38' W 074°12'0 0.0
2015-Jul-01 19:32N 40°38' W 074°12'0 0.0
2015-Jul-01 18:32N 40°38' W 074°12'0 0.0
2015-Jul-01 17:33N 40°38' W 074°12'0 0.0
2015-Jul-01 16:33N 40°38' W 074°12'0 0.0
2015-Jul-01 15:28N 40°38' W 074°12'0 0.0
2015-Jul-01 14:32N 40°38' W 074°12'0 0.0
2015-Jul-01 13:32N 40°38' W 074°12'0 0.0
2015-Jul-01 12:33N 40°38' W 074°12'0 0.0
2015-Jul-01 11:31N 40°38' W 074°12'0 0.0
2015-Jul-01 10:31N 40°38' W 074°12'0 0.0
2015-Jul-01 09:32N 40°38' W 074°12'0 0.0
2015-Jul-01 08:30N 40°38' W 074°12'0 0.0
2015-Jul-01 07:33N 40°38' W 074°12'0 0.0
2015-Jul-01 06:31N 40°38' W 074°12'0 0.0
2015-Jul-01 05:32N 40°38' W 074°12'0 0.0
2015-Jul-01 04:32N 40°38' W 074°12'0 0.0
2015-Jul-01 03:33N 40°38' W 074°12'0 0.0
2015-Jul-01 02:31N 40°38' W 074°12'0 0.0
2015-Jul-01 01:31N 40°38' W 074°12'0 0.0
2015-Jul-01 00:32N 40°38' W 074°12'0 0.0
2015-Jun-30 23:30N 40°38' W 074°12'0 0.0
2015-Jun-30 22:30N 40°38' W 074°12'0 0.0
2015-Jun-30 21:31N 40°38' W 074°12'0 0.0
2015-Jun-30 20:32N 40°38' W 074°12'2 2.4
2015-Jun-30 19:33N 40°39' W 074°10'6 5.4
2015-Jun-30 18:31N 40°40' W 074°02'0 0.1
2015-Jun-30 17:31N 40°40' W 074°02'0 0.0
2015-Jun-30 16:32N 40°40' W 074°02'0 0.0
2015-Jun-30 15:33N 40°40' W 074°02'0 0.0
2015-Jun-30 14:33N 40°40' W 074°02'0 0.1
2015-Jun-30 13:31N 40°40' W 074°02'0 0.0
2015-Jun-30 12:32N 40°40' W 074°02'0 0.0
2015-Jun-30 11:32N 40°40' W 074°02'0 0.1
2015-Jun-30 10:33N 40°40' W 074°02'0 0.2
2015-Jun-30 09:33N 40°40' W 074°02'0 0.0
2015-Jun-30 08:31N 40°40' W 074°02'0 0.0
2015-Jun-30 07:32N 40°40' W 074°02'0 0.0
2015-Jun-30 06:32N 40°40' W 074°02'0 0.0
2015-Jun-30 05:33N 40°40' W 074°02'2 2.2
2015-Jun-30 04:33N 40°39' W 074°05'1 0.7
2015-Jun-30 03:33N 40°40' W 074°04'1 1.0
2015-Jun-30 02:31N 40°40' W 074°05'0 0.0
2015-Jun-30 01:31N 40°40' W 074°05'0 0.0
2015-Jun-30 00:32N 40°40' W 074°05'0 0.0
2015-Jun-29 23:32N 40°40' W 074°05'0 0.0
2015-Jun-29 22:33N 40°40' W 074°05'0 0.0
2015-Jun-29 21:31N 40°40' W 074°05'0 0.0
2015-Jun-29 20:31N 40°40' W 074°05'0 0.0
2015-Jun-29 19:32N 40°40' W 074°05'0 0.0
2015-Jun-29 18:33N 40°40' W 074°05'0 0.0
2015-Jun-29 17:33N 40°40' W 074°05'0 0.0
2015-Jun-29 16:31N 40°40' W 074°05'0 0.0
2015-Jun-29 15:32N 40°40' W 074°05'0 0.0
2015-Jun-29 14:33N 40°40' W 074°05'0 0.0
2015-Jun-29 13:31N 40°40' W 074°05'0 0.0
2015-Jun-29 12:31N 40°40' W 074°05'1 1.0
2015-Jun-29 11:32N 40°39' W 074°05'5 4.6
2015-Jun-29 10:33N 40°39' W 074°11'1 1.2
2015-Jun-29 09:33N 40°38' W 074°12'0 0.0
2015-Jun-29 08:31N 40°38' W 074°12'0 0.0
2015-Jun-29 07:32N 40°38' W 074°12'0 0.0
2015-Jun-29 06:29N 40°38' W 074°12'0 0.0
2015-Jun-29 05:33N 40°38' W 074°12'0 0.0
2015-Jun-29 04:33N 40°38' W 074°12'0 0.0
2015-Jun-29 03:31N 40°38' W 074°12'0 0.0
2015-Jun-29 02:32N 40°38' W 074°12'0 0.0
2015-Jun-29 01:33N 40°38' W 074°12'0 0.0
2015-Jun-29 00:30N 40°38' W 074°12'0 0.0
2015-Jun-28 23:28N 40°38' W 074°12'0 0.0
2015-Jun-28 22:23N 40°38' W 074°12'0 0.0
2015-Jun-28 21:32N 40°38' W 074°12'0 0.0
2015-Jun-28 20:24N 40°38' W 074°12'0 0.0
2015-Jun-28 19:33N 40°38' W 074°12'0 0.0
2015-Jun-28 18:31N 40°38' W 074°12'0 0.4
2015-Jun-28 17:33N 40°38' W 074°12'5 5.2
2015-Jun-28 16:33N 40°39' W 074°05'0 0.0
2015-Jun-28 15:33N 40°39' W 074°05'1 0.9
2015-Jun-28 14:31N 40°40' W 074°05'0 0.0
2015-Jun-28 13:31N 40°40' W 074°05'0 0.0
2015-Jun-28 12:32N 40°40' W 074°05'0 0.0
2015-Jun-28 11:33N 40°40' W 074°05'0 0.0
2015-Jun-28 10:33N 40°40' W 074°05'0 0.0
2015-Jun-28 09:31N 40°40' W 074°05'0 0.0
2015-Jun-28 08:32N 40°40' W 074°05'0 0.0
2015-Jun-28 07:32N 40°40' W 074°05'0 0.0
2015-Jun-28 06:33N 40°40' W 074°05'0 0.0
2015-Jun-28 05:34N 40°40' W 074°05'0 0.0
2015-Jun-28 04:31N 40°40' W 074°05'0 0.0
2015-Jun-28 03:32N 40°40' W 074°05'0 0.0
2015-Jun-28 02:32N 40°40' W 074°05'0 0.0
2015-Jun-28 01:27N 40°40' W 074°05'0 0.0
2015-Jun-28 00:31N 40°40' W 074°05'0 0.0
2015-Jun-27 23:31N 40°40' W 074°05'0 0.0
2015-Jun-27 22:32N 40°40' W 074°05'1 1.0
2015-Jun-27 21:33N 40°39' W 074°05'1 1.3
2015-Jun-27 20:33N 40°39' W 074°07'2 1.7
2015-Jun-27 19:33N 40°40' W 074°05'0 0.0
2015-Jun-27 18:31N 40°40' W 074°05'0 0.0
2015-Jun-27 17:31N 40°40' W 074°05'0 0.0
2015-Jun-27 16:32N 40°40' W 074°05'0 0.0
2015-Jun-27 15:33N 40°40' W 074°05'0 0.0
2015-Jun-27 14:33N 40°40' W 074°05'0 0.0
2015-Jun-27 13:31N 40°40' W 074°05'0 0.0
2015-Jun-27 12:31N 40°40' W 074°05'4 3.8
2015-Jun-27 11:32N 40°40' W 074°00'0 0.1
2015-Jun-27 10:33N 40°40' W 074°00'5 4.7
2015-Jun-27 09:28N 40°39' W 074°07'2 2.7
2015-Jun-27 08:33N 40°39' W 074°03'2 2.1
2015-Jun-27 07:33N 40°39' W 074°06'3 2.5
2015-Jun-27 06:33N 40°39' W 074°09'2 2.4
2015-Jun-27 05:33N 40°38' W 074°12'0 0.2
2015-Jun-27 04:26N 40°38' W 074°12'0 0.0
2015-Jun-27 03:29N 40°38' W 074°12'0 0.0
2015-Jun-27 02:33N 40°38' W 074°12'0 0.0
2015-Jun-27 01:31N 40°38' W 074°12'0 0.0
2015-Jun-27 00:25N 40°38' W 074°12'0 0.0
2015-Jun-26 23:26N 40°38' W 074°12'0 0.0
2015-Jun-26 22:27N 40°38' W 074°12'0 0.0
2015-Jun-26 21:30N 40°38' W 074°12'0 0.0
2015-Jun-26 20:28N 40°38' W 074°12'0 0.0
2015-Jun-26 19:32N 40°38' W 074°12'0 0.0
2015-Jun-26 18:32N 40°38' W 074°12'0 0.0
2015-Jun-26 17:27N 40°38' W 074°12'0 0.0
2015-Jun-26 16:31N 40°38' W 074°12'0 0.0
2015-Jun-26 15:25N 40°38' W 074°12'0 0.0
2015-Jun-26 14:32N 40°38' W 074°12'0 0.0
2015-Jun-26 13:18N 40°38' W 074°12'0 0.0
2015-Jun-26 12:33N 40°38' W 074°12'0 0.0
2015-Jun-26 11:28N 40°38' W 074°12'0 0.0
2015-Jun-26 10:31N 40°38' W 074°12'0 0.0
2015-Jun-26 09:32N 40°38' W 074°12'0 0.0
2015-Jun-26 08:30N 40°38' W 074°12'0 0.0
2015-Jun-26 07:33N 40°38' W 074°12'0 0.0
2015-Jun-26 06:31N 40°38' W 074°12'0 0.0
2015-Jun-26 05:32N 40°38' W 074°12'0 0.1
2015-Jun-26 04:33N 40°38' W 074°12'7 7.3
2015-Jun-26 03:33N 40°39' W 074°03'0 0.1
2015-Jun-26 02:31N 40°39' W 074°03'0 0.1
2015-Jun-26 01:32N 40°39' W 074°03'0 0.1
2015-Jun-26 00:32N 40°39' W 074°03'0 0.1
2015-Jun-25 23:33N 40°39' W 074°03'0 0.0
2015-Jun-25 22:34N 40°39' W 074°03'0 0.0
2015-Jun-25 21:31N 40°39' W 074°03'0 0.0
2015-Jun-25 20:32N 40°39' W 074°03'2 1.6
2015-Jun-25 19:28N 40°39' W 074°05'4 4.1
2015-Jun-25 18:33N 40°40' W 074°00'0 0.0
2015-Jun-25 17:31N 40°40' W 074°00'0 0.0
2015-Jun-25 16:32N 40°40' W 074°00'0 0.0
2015-Jun-25 15:32N 40°40' W 074°00'0 0.0
2015-Jun-25 14:33N 40°40' W 074°00'0 0.0
2015-Jun-25 13:31N 40°40' W 074°00'0 0.0
2015-Jun-25 12:31N 40°40' W 074°00'0 0.0
2015-Jun-25 11:32N 40°40' W 074°00'0 0.0
2015-Jun-25 10:33N 40°40' W 074°00'0 0.0
2015-Jun-25 09:31N 40°40' W 074°00'1 0.7
2015-Jun-25 08:34N 40°40' W 074°01'3 3.1
2015-Jun-25 07:31N 40°39' W 074°05'1 1.2
2015-Jun-25 06:33N 40°39' W 074°07'3 3.3
2015-Jun-25 05:33N 40°39' W 074°02'2 2.0
2015-Jun-25 04:33N 40°40' W 074°00'0 0.0
2015-Jun-25 03:31N 40°40' W 074°00'0 0.0
2015-Jun-25 02:32N 40°40' W 074°00'0 0.0
2015-Jun-25 01:32N 40°40' W 074°00'3 3.3
2015-Jun-25 00:34N 40°39' W 074°04'7 6.9
2015-Jun-24 23:33N 40°36' W 074°12'0 0.0
2015-Jun-24 18:33N 40°36' W 074°12'5 5.3
2015-Jun-24 17:33N 40°39' W 074°07'0 0.3
2015-Jun-24 16:28N 40°39' W 074°07'0 0.0
2015-Jun-24 15:29N 40°39' W 074°07'0 0.0
2015-Jun-24 14:29N 40°39' W 074°07'0 0.0
2015-Jun-24 13:33N 40°39' W 074°07'0 0.0
2015-Jun-24 12:31N 40°39' W 074°07'0 0.0
2015-Jun-24 11:31N 40°39' W 074°07'0 0.0
2015-Jun-24 10:29N 40°39' W 074°07'0 0.0
2015-Jun-24 09:33N 40°39' W 074°07'0 0.0
2015-Jun-24 08:33N 40°39' W 074°07'0 0.0
2015-Jun-24 07:31N 40°39' W 074°07'0 0.0
2015-Jun-24 06:33N 40°39' W 074°07'0 0.0
2015-Jun-24 05:32N 40°39' W 074°07'0 0.0
2015-Jun-24 04:33N 40°39' W 074°07'0 0.0
2015-Jun-24 03:33N 40°39' W 074°07'0 0.0
2015-Jun-24 02:33N 40°39' W 074°07'0 0.0
2015-Jun-24 01:32N 40°39' W 074°07'0 0.0
2015-Jun-24 00:32N 40°39' W 074°07'0 0.0
2015-Jun-23 23:33N 40°39' W 074°07'  
Track history (hours):
 
Tides and Currents Weather Stations Pressure Air Temp Water Temp Dewpoint Dewpoint Depression Visibility Wind Speed Wind Dir Waves Ship Positions

Nanticoke

Owner: Vane Line Bunkering, Baltimore, MD. More information available from US FCC via Universal Licensing System and Coast Guard Vessel Documentation Center.

Last reported at 2015-Jul-03 23:32 UTC. Time now 2015-Jul-03 23:47 UTC.
Position N 40°39' W 074°03'.

Length 34 m; draft 4.7 m.

Type: Towing. MMSI: 367023480.

Date/timePositionNaut miles runAvg speedWind from/ knotsBaromVisibWave heightAir tempDewpointWater temp
2015-Jul-03 23:32N 40°39' W 074°03'0 0.2
2015-Jul-03 22:33N 40°39' W 074°03'0 0.0
2015-Jul-03 21:28N 40°39' W 074°03'0 0.0
2015-Jul-03 20:31N 40°39' W 074°03'0 0.0
2015-Jul-03 19:32N 40°39' W 074°03'0 0.0
2015-Jul-03 18:33N 40°39' W 074°03'0 0.0
2015-Jul-03 17:33N 40°39' W 074°03'0 0.0
2015-Jul-03 16:31N 40°39' W 074°03'0 0.0
2015-Jul-03 15:32N 40°39' W 074°03'0 0.1
2015-Jul-03 14:32N 40°39' W 074°03'0 0.0
2015-Jul-03 13:33N 40°39' W 074°03'0 0.1
2015-Jul-03 12:33N 40°39' W 074°03'0 0.0
2015-Jul-03 11:31N 40°39' W 074°03'0 0.0
2015-Jul-03 10:32N 40°39' W 074°03'0 0.0
2015-Jul-03 09:32N 40°39' W 074°03'0 0.0
2015-Jul-03 08:33N 40°39' W 074°03'0 0.0
2015-Jul-03 07:31N 40°39' W 074°03'0 0.0
2015-Jul-03 06:31N 40°39' W 074°03'0 0.0
2015-Jul-03 05:32N 40°39' W 074°03'0 0.0
2015-Jul-03 04:33N 40°39' W 074°03'2 1.6
2015-Jul-03 03:32N 40°39' W 074°05'1 1.0
2015-Jul-03 02:32N 40°40' W 074°05'0 0.0
2015-Jul-03 01:32N 40°40' W 074°05'0 0.0
2015-Jul-03 00:33N 40°40' W 074°05'0 0.0
2015-Jul-02 23:31N 40°40' W 074°05'0 0.0
2015-Jul-02 22:31N 40°40' W 074°05'0 0.0
2015-Jul-02 21:32N 40°40' W 074°05'0 0.0
2015-Jul-02 20:33N 40°40' W 074°05'0 0.0
2015-Jul-02 19:33N 40°40' W 074°05'0 0.0
2015-Jul-02 18:34N 40°40' W 074°05'4 3.8
2015-Jul-02 17:33N 40°40' W 074°00'0 0.0
2015-Jul-02 16:31N 40°40' W 074°00'0 0.0
2015-Jul-02 15:32N 40°40' W 074°00'0 0.0
2015-Jul-02 14:32N 40°40' W 074°00'0 0.0
2015-Jul-02 13:33N 40°40' W 074°00'0 0.0
2015-Jul-02 12:31N 40°40' W 074°00'0 0.0
2015-Jul-02 11:31N 40°40' W 074°00'0 0.0
2015-Jul-02 10:32N 40°40' W 074°00'0 0.0
2015-Jul-02 09:33N 40°40' W 074°00'4 3.8
2015-Jul-02 08:33N 40°39' W 074°05'1 1.1
2015-Jul-02 07:34N 40°39' W 074°04'1 0.9
2015-Jul-02 06:33N 40°39' W 074°03'0 0.0
2015-Jul-02 05:33N 40°39' W 074°03'0 0.0
2015-Jul-02 04:31N 40°39' W 074°03'0 0.0
2015-Jul-02 03:33N 40°39' W 074°03'0 0.2
2015-Jul-02 02:32N 40°39' W 074°03'0 0.0
2015-Jul-02 01:33N 40°39' W 074°02'0 0.0
2015-Jul-02 00:32N 40°39' W 074°02'0 0.0
2015-Jul-01 23:31N 40°39' W 074°02'0 0.0
2015-Jul-01 22:32N 40°39' W 074°02'4 4.0
2015-Jul-01 21:33N 40°39' W 074°07'4 3.6
2015-Jul-01 20:31N 40°38' W 074°12'0 0.0
2015-Jul-01 19:32N 40°38' W 074°12'0 0.0
2015-Jul-01 18:32N 40°38' W 074°12'0 0.0
2015-Jul-01 17:33N 40°38' W 074°12'0 0.0
2015-Jul-01 16:33N 40°38' W 074°12'0 0.0
2015-Jul-01 15:28N 40°38' W 074°12'0 0.0
2015-Jul-01 14:32N 40°38' W 074°12'0 0.0
2015-Jul-01 13:32N 40°38' W 074°12'0 0.0
2015-Jul-01 12:33N 40°38' W 074°12'0 0.0
2015-Jul-01 11:31N 40°38' W 074°12'0 0.0
2015-Jul-01 10:31N 40°38' W 074°12'0 0.0
2015-Jul-01 09:32N 40°38' W 074°12'0 0.0
2015-Jul-01 08:30N 40°38' W 074°12'0 0.0
2015-Jul-01 07:33N 40°38' W 074°12'0 0.0
2015-Jul-01 06:31N 40°38' W 074°12'0 0.0
2015-Jul-01 05:32N 40°38' W 074°12'0 0.0
2015-Jul-01 04:32N 40°38' W 074°12'0 0.0
2015-Jul-01 03:33N 40°38' W 074°12'0 0.0
2015-Jul-01 02:31N 40°38' W 074°12'0 0.0
2015-Jul-01 01:31N 40°38' W 074°12'0 0.0
2015-Jul-01 00:32N 40°38' W 074°12'0 0.0
2015-Jun-30 23:30N 40°38' W 074°12'0 0.0
2015-Jun-30 22:30N 40°38' W 074°12'0 0.0
2015-Jun-30 21:31N 40°38' W 074°12'0 0.0
2015-Jun-30 20:32N 40°38' W 074°12'2 2.4
2015-Jun-30 19:33N 40°39' W 074°10'6 5.4
2015-Jun-30 18:31N 40°40' W 074°02'0 0.1
2015-Jun-30 17:31N 40°40' W 074°02'0 0.0
2015-Jun-30 16:32N 40°40' W 074°02'0 0.0
2015-Jun-30 15:33N 40°40' W 074°02'0 0.0
2015-Jun-30 14:33N 40°40' W 074°02'0 0.1
2015-Jun-30 13:31N 40°40' W 074°02'0 0.0
2015-Jun-30 12:32N 40°40' W 074°02'0 0.0
2015-Jun-30 11:32N 40°40' W 074°02'0 0.1
2015-Jun-30 10:33N 40°40' W 074°02'0 0.2
2015-Jun-30 09:33N 40°40' W 074°02'0 0.0
2015-Jun-30 08:31N 40°40' W 074°02'0 0.0
2015-Jun-30 07:32N 40°40' W 074°02'0 0.0
2015-Jun-30 06:32N 40°40' W 074°02'0 0.0
2015-Jun-30 05:33N 40°40' W 074°02'2 2.2
2015-Jun-30 04:33N 40°39' W 074°05'1 0.7
2015-Jun-30 03:33N 40°40' W 074°04'1 1.0
2015-Jun-30 02:31N 40°40' W 074°05'0 0.0
2015-Jun-30 01:31N 40°40' W 074°05'0 0.0
2015-Jun-30 00:32N 40°40' W 074°05'0 0.0
2015-Jun-29 23:32N 40°40' W 074°05'0 0.0
2015-Jun-29 22:33N 40°40' W 074°05'0 0.0
2015-Jun-29 21:31N 40°40' W 074°05'0 0.0
2015-Jun-29 20:31N 40°40' W 074°05'0 0.0
2015-Jun-29 19:32N 40°40' W 074°05'0 0.0
2015-Jun-29 18:33N 40°40' W 074°05'0 0.0
2015-Jun-29 17:33N 40°40' W 074°05'0 0.0
2015-Jun-29 16:31N 40°40' W 074°05'0 0.0
2015-Jun-29 15:32N 40°40' W 074°05'0 0.0
2015-Jun-29 14:33N 40°40' W 074°05'0 0.0
2015-Jun-29 13:31N 40°40' W 074°05'0 0.0
2015-Jun-29 12:31N 40°40' W 074°05'1 1.0
2015-Jun-29 11:32N 40°39' W 074°05'5 4.6
2015-Jun-29 10:33N 40°39' W 074°11'1 1.2
2015-Jun-29 09:33N 40°38' W 074°12'0 0.0
2015-Jun-29 08:31N 40°38' W 074°12'0 0.0
2015-Jun-29 07:32N 40°38' W 074°12'0 0.0
2015-Jun-29 06:29N 40°38' W 074°12'0 0.0
2015-Jun-29 05:33N 40°38' W 074°12'0 0.0
2015-Jun-29 04:33N 40°38' W 074°12'0 0.0
2015-Jun-29 03:31N 40°38' W 074°12'0 0.0
2015-Jun-29 02:32N 40°38' W 074°12'0 0.0
2015-Jun-29 01:33N 40°38' W 074°12'0 0.0
2015-Jun-29 00:30N 40°38' W 074°12'0 0.0
2015-Jun-28 23:28N 40°38' W 074°12'0 0.0
2015-Jun-28 22:23N 40°38' W 074°12'0 0.0
2015-Jun-28 21:32N 40°38' W 074°12'0 0.0
2015-Jun-28 20:24N 40°38' W 074°12'0 0.0
2015-Jun-28 19:33N 40°38' W 074°12'0 0.0
2015-Jun-28 18:31N 40°38' W 074°12'0 0.4
2015-Jun-28 17:33N 40°38' W 074°12'5 5.2
2015-Jun-28 16:33N 40°39' W 074°05'0 0.0
2015-Jun-28 15:33N 40°39' W 074°05'1 0.9
2015-Jun-28 14:31N 40°40' W 074°05'0 0.0
2015-Jun-28 13:31N 40°40' W 074°05'0 0.0
2015-Jun-28 12:32N 40°40' W 074°05'0 0.0
2015-Jun-28 11:33N 40°40' W 074°05'0 0.0
2015-Jun-28 10:33N 40°40' W 074°05'0 0.0
2015-Jun-28 09:31N 40°40' W 074°05'0 0.0
2015-Jun-28 08:32N 40°40' W 074°05'0 0.0
2015-Jun-28 07:32N 40°40' W 074°05'0 0.0
2015-Jun-28 06:33N 40°40' W 074°05'0 0.0
2015-Jun-28 05:34N 40°40' W 074°05'0 0.0
2015-Jun-28 04:31N 40°40' W 074°05'0 0.0
2015-Jun-28 03:32N 40°40' W 074°05'0 0.0
2015-Jun-28 02:32N 40°40' W 074°05'0 0.0
2015-Jun-28 01:27N 40°40' W 074°05'0 0.0
2015-Jun-28 00:31N 40°40' W 074°05'0 0.0
2015-Jun-27 23:31N 40°40' W 074°05'0 0.0
2015-Jun-27 22:32N 40°40' W 074°05'1 1.0
2015-Jun-27 21:33N 40°39' W 074°05'1 1.3
2015-Jun-27 20:33N 40°39' W 074°07'2 1.7
2015-Jun-27 19:33N 40°40' W 074°05'0 0.0
2015-Jun-27 18:31N 40°40' W 074°05'0 0.0
2015-Jun-27 17:31N 40°40' W 074°05'0 0.0
2015-Jun-27 16:32N 40°40' W 074°05'0 0.0
2015-Jun-27 15:33N 40°40' W 074°05'0 0.0
2015-Jun-27 14:33N 40°40' W 074°05'0 0.0
2015-Jun-27 13:31N 40°40' W 074°05'0 0.0
2015-Jun-27 12:31N 40°40' W 074°05'4 3.8
2015-Jun-27 11:32N 40°40' W 074°00'0 0.1
2015-Jun-27 10:33N 40°40' W 074°00'5 4.7
2015-Jun-27 09:28N 40°39' W 074°07'2 2.7
2015-Jun-27 08:33N 40°39' W 074°03'2 2.1
2015-Jun-27 07:33N 40°39' W 074°06'3 2.5
2015-Jun-27 06:33N 40°39' W 074°09'2 2.4
2015-Jun-27 05:33N 40°38' W 074°12'0 0.2
2015-Jun-27 04:26N 40°38' W 074°12'0 0.0
2015-Jun-27 03:29N 40°38' W 074°12'0 0.0
2015-Jun-27 02:33N 40°38' W 074°12'0 0.0
2015-Jun-27 01:31N 40°38' W 074°12'0 0.0
2015-Jun-27 00:25N 40°38' W 074°12'0 0.0
2015-Jun-26 23:26N 40°38' W 074°12'0 0.0
2015-Jun-26 22:27N 40°38' W 074°12'0 0.0
2015-Jun-26 21:30N 40°38' W 074°12'0 0.0
2015-Jun-26 20:28N 40°38' W 074°12'0 0.0
2015-Jun-26 19:32N 40°38' W 074°12'0 0.0
2015-Jun-26 18:32N 40°38' W 074°12'0 0.0
2015-Jun-26 17:27N 40°38' W 074°12'0 0.0
2015-Jun-26 16:31N 40°38' W 074°12'0 0.0
2015-Jun-26 15:25N 40°38' W 074°12'0 0.0
2015-Jun-26 14:32N 40°38' W 074°12'0 0.0
2015-Jun-26 13:18N 40°38' W 074°12'0 0.0
2015-Jun-26 12:33N 40°38' W 074°12'0 0.0
2015-Jun-26 11:28N 40°38' W 074°12'0 0.0
2015-Jun-26 10:31N 40°38' W 074°12'0 0.0
2015-Jun-26 09:32N 40°38' W 074°12'0 0.0
2015-Jun-26 08:30N 40°38' W 074°12'0 0.0
2015-Jun-26 07:33N 40°38' W 074°12'0 0.0
2015-Jun-26 06:31N 40°38' W 074°12'0 0.0
2015-Jun-26 05:32N 40°38' W 074°12'0 0.1
2015-Jun-26 04:33N 40°38' W 074°12'7 7.3
2015-Jun-26 03:33N 40°39' W 074°03'0 0.1
2015-Jun-26 02:31N 40°39' W 074°03'0 0.1
2015-Jun-26 01:32N 40°39' W 074°03'0 0.1
2015-Jun-26 00:32N 40°39' W 074°03'0 0.1
2015-Jun-25 23:33N 40°39' W 074°03'0 0.0
2015-Jun-25 22:34N 40°39' W 074°03'0 0.0
2015-Jun-25 21:31N 40°39' W 074°03'0 0.0
2015-Jun-25 20:32N 40°39' W 074°03'2 1.6
2015-Jun-25 19:28N 40°39' W 074°05'4 4.1
2015-Jun-25 18:33N 40°40' W 074°00'0 0.0
2015-Jun-25 17:31N 40°40' W 074°00'0 0.0
2015-Jun-25 16:32N 40°40' W 074°00'0 0.0
2015-Jun-25 15:32N 40°40' W 074°00'0 0.0
2015-Jun-25 14:33N 40°40' W 074°00'0 0.0
2015-Jun-25 13:31N 40°40' W 074°00'0 0.0
2015-Jun-25 12:31N 40°40' W 074°00'0 0.0
2015-Jun-25 11:32N 40°40' W 074°00'0 0.0
2015-Jun-25 10:33N 40°40' W 074°00'0 0.0
2015-Jun-25 09:31N 40°40' W 074°00'1 0.7
2015-Jun-25 08:34N 40°40' W 074°01'3 3.1
2015-Jun-25 07:31N 40°39' W 074°05'1 1.2
2015-Jun-25 06:33N 40°39' W 074°07'3 3.3
2015-Jun-25 05:33N 40°39' W 074°02'2 2.0
2015-Jun-25 04:33N 40°40' W 074°00'0 0.0
2015-Jun-25 03:31N 40°40' W 074°00'0 0.0
2015-Jun-25 02:32N 40°40' W 074°00'0 0.0
2015-Jun-25 01:32N 40°40' W 074°00'3 3.3
2015-Jun-25 00:34N 40°39' W 074°04'7 6.9
2015-Jun-24 23:33N 40°36' W 074°12'0 0.0
2015-Jun-24 18:33N 40°36' W 074°12'5 5.3
2015-Jun-24 17:33N 40°39' W 074°07'0 0.3
2015-Jun-24 16:28N 40°39' W 074°07'0 0.0
2015-Jun-24 15:29N 40°39' W 074°07'0 0.0
2015-Jun-24 14:29N 40°39' W 074°07'0 0.0
2015-Jun-24 13:33N 40°39' W 074°07'0 0.0
2015-Jun-24 12:31N 40°39' W 074°07'0 0.0
2015-Jun-24 11:31N 40°39' W 074°07'0 0.0
2015-Jun-24 10:29N 40°39' W 074°07'0 0.0
2015-Jun-24 09:33N 40°39' W 074°07'0 0.0
2015-Jun-24 08:33N 40°39' W 074°07'0 0.0
2015-Jun-24 07:31N 40°39' W 074°07'0 0.0
2015-Jun-24 06:33N 40°39' W 074°07'0 0.0
2015-Jun-24 05:32N 40°39' W 074°07'0 0.0
2015-Jun-24 04:33N 40°39' W 074°07'0 0.0
2015-Jun-24 03:33N 40°39' W 074°07'0 0.0
2015-Jun-24 02:33N 40°39' W 074°07'0 0.0
2015-Jun-24 01:32N 40°39' W 074°07'0 0.0
2015-Jun-24 00:32N 40°39' W 074°07'0 0.0
2015-Jun-23 23:33N 40°39' W 074°07'  

Dump ship's entire track history